| time (UTC) | temp F | wind direction | speed knots | gust knots | rain 1hr in | rain 24hr in | rain mn in | humidity % | barometer mb |
| 20260905183247 | 65 | 170 | 0.0 | 0.0 | 0.00 | 0.04 | 0.00 | 66 | 1041.5 |
| 20260905182746 | 65 | 342 | 1.7 | 1.7 | 0.00 | 0.04 | 0.00 | 65 | 1041.5 |
| 20260905182246 | 65 | 187 | 0.0 | 0.0 | 0.00 | 0.04 | 0.00 | 65 | 1041.6 |
| 20260905181745 | 65 | 26 | 0.0 | 0.9 | 0.00 | 0.04 | 0.00 | 66 | 1041.5 |
| 20260905181215 | 65 | 20 | 0.9 | 0.9 | 0.00 | 0.04 | 0.00 | 65 | 1041.5 |
| 20260905180714 | 65 | 31 | 0.9 | 0.9 | 0.00 | 0.04 | 0.00 | 65 | 1041.6 |
| 20260905180213 | 65 | 82 | 0.9 | 0.9 | 0.00 | 0.04 | 0.00 | 65 | 1041.3 |
| 20260905175713 | 65 | 182 | 0.0 | 0.0 | 0.00 | 0.04 | 0.00 | 65 | 1041.4 |
| 20260905175212 | 65 | 170 | 0.0 | 0.9 | 0.00 | 0.04 | 0.00 | 65 | 1041.1 |
| 20260905174711 | 66 | 156 | 0.9 | 0.9 | 0.00 | 0.04 | 0.00 | 65 | 1041.3 |
| 20260905174211 | 66 | 163 | 0.0 | 0.0 | 0.00 | 0.04 | 0.00 | 64 | 1041.0 |
| 20260905173710 | 66 | 340 | 0.9 | 0.9 | 0.00 | 0.04 | 0.00 | 64 | 1041.2 |
| 20260905173210 | 66 | 142 | 0.0 | 0.0 | 0.00 | 0.04 | 0.00 | 64 | 1041.1 |
| 20260905172709 | 66 | 147 | 0.0 | 0.0 | 0.00 | 0.04 | 0.00 | 65 | 1040.9 |
| 20260905172209 | 66 | 166 | 0.0 | 0.9 | 0.00 | 0.04 | 0.00 | 65 | 1041.2 |
| 20260905171708 | 66 | 164 | 0.0 | 0.9 | 0.00 | 0.04 | 0.00 | 65 | 1041.1 |
| 20260905171207 | 66 | 162 | 0.0 | 0.0 | 0.00 | 0.04 | 0.00 | 65 | 1041.1 |
| 20260905170707 | 66 | 16 | 1.7 | 2.6 | 0.00 | 0.04 | 0.00 | 65 | 1041.1 |
| 20260905170206 | 66 | 153 | 0.0 | 0.0 | 0.00 | 0.04 | 0.00 | 65 | 1041.1 |
| 20260905165706 | 66 | 166 | 0.0 | 0.9 | 0.00 | 0.04 | 0.00 | 65 | 1041.0 |
| 20260905165205 | 66 | 15 | 0.9 | 0.9 | 0.00 | 0.04 | 0.00 | 65 | 1040.8 |
| 20260905164705 | 66 | 327 | 0.9 | 1.7 | 0.00 | 0.04 | 0.00 | 65 | 1040.9 |
| 20260905164204 | 67 | 47 | 0.9 | 0.9 | 0.00 | 0.04 | 0.00 | 65 | 1040.9 |
| 20260905163703 | 67 | 156 | 0.9 | 0.9 | 0.00 | 0.04 | 0.00 | 64 | 1040.7 |
| 20260905163203 | 67 | 177 | 0.0 | 0.0 | 0.00 | 0.04 | 0.00 | 64 | 1040.8 |
| 20260905162702 | 67 | 178 | 0.0 | 0.0 | 0.00 | 0.04 | 0.00 | 64 | 1040.8 |
| 20260905162202 | 67 | 144 | 0.9 | 0.9 | 0.00 | 0.04 | 0.00 | 63 | 1040.5 |
| 20260905161701 | 67 | 76 | 0.0 | 0.9 | 0.00 | 0.04 | 0.00 | 63 | 1040.3 |
| 20260905161201 | 67 | 135 | 0.0 | 0.0 | 0.00 | 0.04 | 0.00 | 63 | 1040.6 |
| 20260905160700 | 67 | 83 | 1.7 | 1.7 | 0.00 | 0.04 | 0.00 | 62 | 1040.5 |
| 20260905160200 | 68 | 181 | 0.9 | 1.7 | 0.00 | 0.04 | 0.00 | 64 | 1040.3 |
| 20260905155659 | 68 | 185 | 0.0 | 0.0 | 0.00 | 0.04 | 0.00 | 62 | 1040.3 |
| 20260905155159 | 68 | 158 | 0.9 | 0.9 | 0.00 | 0.04 | 0.00 | 61 | 1040.4 |
| 20260905154658 | 68 | 193 | 0.0 | 0.9 | 0.00 | 0.04 | 0.00 | 60 | 1040.2 |
| 20260905154158 | 69 | 196 | 0.0 | 0.9 | 0.00 | 0.04 | 0.00 | 59 | 1040.4 |
| 20260905153657 | 69 | 160 | 0.0 | 0.0 | 0.00 | 0.04 | 0.00 | 58 | 1040.3 |
| 20260905153157 | 70 | 29 | 0.9 | 1.7 | 0.00 | 0.04 | 0.00 | 56 | 1040.1 |
| 20260905152656 | 70 | 59 | 0.9 | 1.7 | 0.00 | 0.04 | 0.00 | 56 | 1040.1 |
| 20260905152155 | 70 | 25 | 1.7 | 2.6 | 0.00 | 0.04 | 0.00 | 55 | 1040.1 |
| 20260905151655 | 71 | 98 | 0.9 | 1.7 | 0.00 | 0.04 | 0.00 | 55 | 1040.3 |
| 20260905151154 | 71 | 31 | 0.9 | 1.7 | 0.00 | 0.04 | 0.00 | 54 | 1040.3 |
| 20260905150654 | 71 | 149 | 1.7 | 1.7 | 0.00 | 0.04 | 0.00 | 54 | 1039.8 |
| 20260905150153 | 71 | 152 | 1.7 | 2.6 | 0.00 | 0.04 | 0.00 | 55 | 1040.1 |
| 20260905145652 | 71 | 145 | 1.7 | 1.7 | 0.00 | 0.04 | 0.00 | 56 | 1040.2 |
| 20260905145152 | 71 | 307 | 1.7 | 2.6 | 0.00 | 0.04 | 0.00 | 56 | 1039.9 |
| 20260905144651 | 71 | 143 | 2.6 | 3.5 | 0.00 | 0.04 | 0.00 | 57 | 1040.0 |
| 20260905144151 | 71 | 38 | 1.7 | 2.6 | 0.00 | 0.04 | 0.00 | 57 | 1040.1 |
| 20260905143650 | 71 | 324 | 1.7 | 2.6 | 0.00 | 0.04 | 0.00 | 57 | 1039.9 |
| 20260905143150 | 71 | 321 | 1.7 | 4.3 | 0.00 | 0.04 | 0.00 | 58 | 1040.2 |
| 20260905142649 | 71 | 347 | 3.5 | 7.0 | 0.00 | 0.04 | 0.00 | 58 | 1040.2 |
| 20260905142149 | 71 | 175 | 0.0 | 0.0 | 0.00 | 0.04 | 0.00 | 58 | 1040.0 |
| 20260905141648 | 71 | 307 | 1.7 | 1.7 | 0.00 | 0.04 | 0.00 | 58 | 1040.1 |
| 20260905141147 | 70 | 325 | 2.6 | 3.5 | 0.00 | 0.04 | 0.00 | 59 | 1040.2 |
| 20260905140647 | 70 | 164 | 0.9 | 0.9 | 0.00 | 0.04 | 0.00 | 60 | 1040.5 |
| 20260905140147 | 71 | 193 | 0.9 | 1.7 | 0.00 | 0.04 | 0.00 | 60 | 1040.3 |
| 20260905135646 | 70 | 278 | 1.7 | 1.7 | 0.00 | 0.04 | 0.00 | 60 | 1040.3 |
| 20260905135145 | 70 | 144 | 0.9 | 0.9 | 0.00 | 0.04 | 0.00 | 60 | 1040.5 |
| 20260905134645 | 69 | 142 | 0.9 | 1.7 | 0.00 | 0.04 | 0.00 | 62 | 1040.3 |
| 20260905134144 | 69 | 211 | 2.6 | 5.2 | 0.00 | 0.04 | 0.00 | 62 | 1040.5 |
| 20260905133644 | 69 | 150 | 2.6 | 2.6 | 0.00 | 0.04 | 0.00 | 62 | 1040.5 |
| 20260905133143 | 70 | 60 | 0.9 | 0.9 | 0.00 | 0.04 | 0.00 | 61 | 1040.6 |
| 20260905132642 | 70 | 200 | 0.9 | 0.9 | 0.00 | 0.04 | 0.00 | 61 | 1040.7 |
| 20260905132142 | 71 | 158 | 0.0 | 0.9 | 0.00 | 0.04 | 0.00 | 60 | 1040.6 |
| 20260905131641 | 71 | 152 | 0.9 | 1.7 | 0.00 | 0.04 | 0.00 | 59 | 1040.8 |
| 20260905131141 | 72 | 130 | 0.0 | 0.9 | 0.00 | 0.04 | 0.00 | 58 | 1040.7 |
| 20260905130640 | 72 | 212 | 0.9 | 1.7 | 0.00 | 0.04 | 0.00 | 61 | 1040.8 |
| 20260905130140 | 71 | 327 | 0.9 | 0.9 | 0.00 | 0.04 | 0.00 | 61 | 1040.8 |
| 20260905125639 | 71 | 84 | 0.9 | 1.7 | 0.00 | 0.04 | 0.00 | 61 | 1040.7 |
| 20260905125139 | 71 | 169 | 0.9 | 0.9 | 0.00 | 0.04 | 0.00 | 60 | 1040.8 |
| 20260905124638 | 71 | 147 | 2.6 | 2.6 | 0.00 | 0.04 | 0.00 | 60 | 1041.0 |
| 20260905124138 | 71 | 196 | 0.9 | 1.7 | 0.00 | 0.04 | 0.00 | 60 | 1041.1 |
| 20260905123637 | 71 | 119 | 1.7 | 2.6 | 0.00 | 0.04 | 0.00 | 60 | 1041.0 |
| 20260905123136 | 71 | 339 | 0.0 | 0.9 | 0.00 | 0.04 | 0.00 | 60 | 1041.0 |
| 20260905122636 | 71 | 286 | 2.6 | 5.2 | 0.00 | 0.04 | 0.00 | 60 | 1041.0 |
| 20260905122135 | 70 | 2 | 2.6 | 3.5 | 0.00 | 0.04 | 0.00 | 60 | 1040.9 |
| 20260905121635 | 70 | 116 | 0.9 | 1.7 | 0.00 | 0.04 | 0.00 | 62 | 1040.6 |
| 20260905121134 | 70 | 66 | 2.6 | 3.5 | 0.00 | 0.04 | 0.00 | 61 | 1040.6 |
| 20260905120634 | 70 | 123 | 1.7 | 2.6 | 0.00 | 0.04 | 0.00 | 60 | 1040.7 |
| 20260905120133 | 69 | 183 | 0.9 | 1.7 | 0.00 | 0.04 | 0.00 | 61 | 1040.5 |
| 20260905115633 | 69 | 128 | 2.6 | 3.5 | 0.00 | 0.04 | 0.00 | 60 | 1040.6 |
| 20260905115132 | 70 | 200 | 1.7 | 2.6 | 0.00 | 0.04 | 0.00 | 60 | 1040.7 |
| 20260905114632 | 69 | 151 | 0.0 | 0.9 | 0.00 | 0.04 | 0.00 | 61 | 1040.7 |
| 20260905114131 | 69 | 222 | 0.9 | 1.7 | 0.00 | 0.04 | 0.00 | 61 | 1040.6 |
| 20260905113630 | 69 | 107 | 0.9 | 1.7 | 0.00 | 0.04 | 0.00 | 60 | 1040.6 |
| 20260905113130 | 70 | 304 | 1.7 | 2.6 | 0.00 | 0.04 | 0.00 | 58 | 1040.7 |
| 20260905112629 | 69 | 196 | 0.0 | 0.9 | 0.00 | 0.04 | 0.00 | 61 | 1040.2 |
| 20260905112129 | 69 | 106 | 1.7 | 2.6 | 0.00 | 0.04 | 0.00 | 62 | 1040.3 |
| 20260905111628 | 69 | 100 | 0.9 | 1.7 | 0.00 | 0.04 | 0.00 | 62 | 1040.3 |
| 20260905111128 | 70 | 46 | 1.7 | 2.6 | 0.00 | 0.04 | 0.00 | 63 | 1040.2 |
| 20260905110627 | 70 | 109 | 0.9 | 1.7 | 0.00 | 0.04 | 0.00 | 63 | 1040.3 |
| 20260905110127 | 69 | 170 | 1.7 | 2.6 | 0.00 | 0.04 | 0.00 | 65 | 1040.3 |
| 20260905105626 | 69 | 141 | 0.9 | 1.7 | 0.00 | 0.04 | 0.00 | 64 | 1040.3 |
| 20260905105126 | 68 | 159 | 0.9 | 0.9 | 0.00 | 0.04 | 0.00 | 65 | 1040.1 |
| 20260905104625 | 68 | 196 | 1.7 | 3.5 | 0.00 | 0.04 | 0.00 | 66 | 1040.4 |
| 20260905104125 | 69 | 323 | 0.9 | 0.9 | 0.00 | 0.04 | 0.00 | 64 | 1040.2 |
| 20260905103624 | 69 | 134 | 0.9 | 0.9 | 0.00 | 0.04 | 0.00 | 64 | 1040.1 |
| 20260905103123 | 68 | 149 | 0.9 | 1.7 | 0.00 | 0.04 | 0.00 | 66 | 1040.3 |
| 20260905102623 | 68 | 78 | 2.6 | 2.6 | 0.00 | 0.04 | 0.00 | 65 | 1040.3 |
| 20260905102122 | 67 | 172 | 0.9 | 1.7 | 0.00 | 0.04 | 0.00 | 66 | 1040.3 |
| 20260905101621 | 69 | 329 | 4.3 | 7.8 | 0.00 | 0.04 | 0.00 | 65 | 1040.3 |
| 20260905101121 | 68 | 147 | 0.9 | 1.7 | 0.00 | 0.04 | 0.00 | 68 | 1040.3 |
| 20260905100620 | 66 | 168 | 0.0 | 0.0 | 0.00 | 0.04 | 0.00 | 71 | 1040.1 |
| 20260905100120 | 65 | 167 | 0.9 | 0.9 | 0.00 | 0.04 | 0.00 | 71 | 1040.3 |
| 20260905095619 | 65 | 247 | 0.9 | 0.9 | 0.00 | 0.04 | 0.00 | 72 | 1040.3 |
| 20260905095119 | 65 | 204 | 1.7 | 2.6 | 0.00 | 0.04 | 0.00 | 73 | 1040.3 |
| 20260905094618 | 66 | 36 | 2.6 | 2.6 | 0.00 | 0.04 | 0.00 | 71 | 1040.2 |
| 20260905094118 | 67 | 337 | 0.9 | 1.7 | 0.00 | 0.04 | 0.00 | 68 | 1040.1 |
| 20260905093617 | 69 | 40 | 1.7 | 2.6 | 0.00 | 0.04 | 0.00 | 65 | 1040.0 |
| 20260905093117 | 70 | 250 | 1.7 | 2.6 | 0.00 | 0.04 | 0.00 | 65 | 1039.9 |
| 20260905092616 | 68 | 150 | 2.6 | 3.5 | 0.00 | 0.04 | 0.00 | 67 | 1040.2 |
| 20260905092116 | 68 | 114 | 0.9 | 1.7 | 0.00 | 0.04 | 0.00 | 68 | 1040.0 |
| 20260905091615 | 68 | 169 | 3.5 | 5.2 | 0.00 | 0.04 | 0.00 | 70 | 1040.1 |
| 20260905091114 | 67 | 122 | 2.6 | 3.5 | 0.00 | 0.04 | 0.00 | 71 | 1040.2 |
| 20260905090614 | 67 | 53 | 1.7 | 2.6 | 0.00 | 0.04 | 0.00 | 71 | 1040.3 |
| 20260905090113 | 66 | 128 | 0.9 | 1.7 | 0.00 | 0.04 | 0.00 | 72 | 1040.1 |
| 20260905085613 | 66 | 75 | 2.6 | 5.2 | 0.00 | 0.04 | 0.00 | 72 | 1040.1 |
| 20260905085112 | 66 | 176 | 0.9 | 1.7 | 0.00 | 0.04 | 0.00 | 72 | 1040.0 |
| 20260905084612 | 65 | 206 | 0.9 | 0.9 | 0.00 | 0.04 | 0.00 | 75 | 1040.0 |
| 20260905084111 | 64 | 265 | 0.9 | 2.6 | 0.00 | 0.04 | 0.00 | 77 | 1039.9 |
| 20260905083611 | 64 | 332 | 0.9 | 0.9 | 0.00 | 0.04 | 0.00 | 78 | 1040.0 |
| 20260905083110 | 65 | 185 | 1.7 | 2.6 | 0.00 | 0.04 | 0.00 | 77 | 1039.9 |
| 20260905082610 | 66 | 130 | 1.7 | 1.7 | 0.00 | 0.04 | 0.00 | 76 | 1039.9 |
| 20260905082109 | 65 | 12 | 1.7 | 2.6 | 0.00 | 0.04 | 0.00 | 78 | 1040.0 |
| 20260905081609 | 64 | 147 | 0.9 | 1.7 | 0.00 | 0.04 | 0.00 | 79 | 1040.0 |
| 20260905081108 | 64 | 145 | 2.6 | 2.6 | 0.00 | 0.04 | 0.00 | 79 | 1040.1 |
| 20260905080607 | 64 | 106 | 0.9 | 0.9 | 0.00 | 0.04 | 0.00 | 80 | 1040.0 |
| 20260905080107 | 64 | 95 | 1.7 | 1.7 | 0.00 | 0.04 | 0.00 | 79 | 1040.2 |
| 20260905075606 | 64 | 163 | 2.6 | 5.2 | 0.00 | 0.04 | 0.00 | 80 | 1040.0 |
| 20260905075106 | 64 | 33 | 0.9 | 1.7 | 0.00 | 0.04 | 0.00 | 80 | 1040.0 |
| 20260905074605 | 62 | 232 | 0.9 | 1.7 | 0.00 | 0.04 | 0.00 | 82 | 1040.2 |
| 20260905074105 | 61 | 89 | 0.9 | 1.7 | 0.00 | 0.04 | 0.00 | 83 | 1039.9 |
| 20260905073604 | 61 | 159 | 1.7 | 1.7 | 0.00 | 0.04 | 0.00 | 84 | 1040.1 |
| 20260905073104 | 61 | 338 | 0.9 | 2.6 | 0.00 | 0.04 | 0.00 | 84 | 1040.0 |
| 20260905072603 | 61 | 166 | 0.9 | 1.7 | 0.00 | 0.04 | 0.00 | 84 | 1040.3 |
| 20260905072103 | 60 | 328 | 0.9 | 0.9 | 0.00 | 0.04 | 0.00 | 84 | 1040.1 |
| 20260905071602 | 60 | 210 | 0.9 | 1.7 | 0.00 | 0.04 | 0.00 | 85 | 1039.6 |
| 20260905071102 | 60 | 181 | 0.9 | 1.7 | 0.00 | 0.04 | 0.00 | 85 | 1039.9 |
| 20260905070601 | 60 | 260 | 0.0 | 0.0 | 0.00 | 0.04 | 0.00 | 86 | 1039.8 |
| 20260905070101 | 60 | 187 | 0.0 | 0.0 | 0.00 | 0.04 | 0.00 | 85 | 1039.9 |
| 20260905065600 | 60 | 187 | 0.0 | 0.0 | 0.00 | 0.04 | 0.00 | 85 | 1039.4 |
| 20260905065100 | 60 | 128 | 0.9 | 1.7 | 0.00 | 0.04 | 0.00 | 85 | 1039.5 |
| 20260905064559 | 60 | 157 | 0.0 | 0.0 | 0.00 | 0.04 | 0.00 | 85 | 1039.4 |
| 20260905064059 | 60 | 156 | 0.0 | 0.9 | 0.00 | 0.04 | 0.00 | 85 | 1039.5 |
| 20260905063558 | 60 | 168 | 0.0 | 0.9 | 0.00 | 0.04 | 0.00 | 85 | 1039.6 |
| 20260905063058 | 60 | 134 | 0.9 | 1.7 | 0.00 | 0.04 | 0.00 | 85 | 1039.8 |
| 20260905062557 | 60 | 171 | 0.0 | 0.0 | 0.00 | 0.04 | 0.00 | 85 | 1039.2 |
| 20260905062057 | 60 | 247 | 0.0 | 0.0 | 0.00 | 0.04 | 0.00 | 85 | 1039.2 |
| 20260905061556 | 59 | 153 | 0.0 | 0.9 | 0.00 | 0.04 | 0.00 | 85 | 1038.9 |
| 20260905061056 | 59 | 154 | 0.0 | 0.9 | 0.00 | 0.04 | 0.00 | 85 | 1039.0 |
| 20260905060556 | 59 | 110 | 0.9 | 0.9 | 0.00 | 0.04 | 0.00 | 86 | 1039.0 |
| 20260905060055 | 59 | 140 | 0.0 | 0.0 | 0.00 | 0.04 | 0.00 | 86 | 1039.1 |
| 20260905055554 | 59 | 121 | 0.9 | 2.6 | 0.00 | 0.04 | 0.00 | 86 | 1039.0 |
| 20260905055054 | 59 | 343 | 0.9 | 1.7 | 0.00 | 0.04 | 0.00 | 86 | 1039.0 |
| 20260905054553 | 59 | 165 | 0.0 | 0.0 | 0.00 | 0.04 | 0.00 | 87 | 1038.9 |
| 20260905054053 | 59 | 346 | 0.9 | 0.9 | 0.00 | 0.04 | 0.00 | 87 | 1038.8 |
| 20260905053552 | 59 | 210 | 0.9 | 0.9 | 0.00 | 0.04 | 0.00 | 87 | 1038.9 |
| 20260905053052 | 59 | 212 | 0.9 | 0.9 | 0.00 | 0.04 | 0.00 | 87 | 1038.7 |
| 20260905052551 | 59 | 3 | 0.9 | 1.7 | 0.00 | 0.04 | 0.00 | 87 | 1038.7 |
| 20260905052051 | 59 | 341 | 1.7 | 2.6 | 0.00 | 0.04 | 0.00 | 87 | 1038.5 |
| 20260905051550 | 59 | 290 | 1.7 | 2.6 | 0.00 | 0.04 | 0.00 | 87 | 1038.6 |
| 20260905051050 | 59 | 79 | 1.7 | 1.7 | 0.00 | 0.04 | 0.00 | 88 | 1038.5 |
| 20260905050549 | 58 | 49 | 1.7 | 2.6 | 0.00 | 0.04 | 0.00 | 89 | 1038.5 |
| 20260905050049 | 59 | 137 | 0.0 | 0.0 | 0.05 | 0.04 | 0.00 | 90 | 1038.9 |
| 20260905045548 | 59 | 146 | 0.0 | 0.9 | 0.05 | 0.04 | 0.00 | 90 | 1038.5 |
| 20260905045048 | 59 | 13 | 1.7 | 2.6 | 0.00 | 0.03 | 0.00 | 90 | 1038.3 |
| 20260905044547 | 59 | 103 | 0.0 | 0.0 | 0.00 | 0.03 | 0.00 | 90 | 1038.1 |
| 20260905044047 | 59 | 139 | 0.0 | 0.0 | 0.00 | 0.03 | 0.00 | 90 | 1038.0 |
| 20260905043546 | 59 | 166 | 0.0 | 0.0 | 0.00 | 0.03 | 0.00 | 90 | 1038.2 |
| 20260905043046 | 60 | 152 | 0.0 | 0.0 | 0.00 | 0.03 | 0.00 | 90 | 1037.9 |
| 20260905042545 | 60 | 163 | 0.9 | 0.9 | 0.00 | 0.03 | 0.00 | 90 | 1037.8 |
| 20260905042044 | 60 | 129 | 0.0 | 0.0 | 0.00 | 0.03 | 0.00 | 90 | 1038.1 |
| 20260905041544 | 60 | 135 | 0.0 | 0.0 | 0.00 | 0.03 | 0.00 | 90 | 1037.9 |
| 20260905041043 | 60 | 212 | 1.7 | 2.6 | 0.07 | 0.03 | 0.00 | 90 | 1037.9 |
| 20260905040543 | 60 | 159 | 0.9 | 1.7 | 0.07 | 0.03 | 0.00 | 90 | 1038.1 |
| 20260905040043 | 60 | 112 | 0.0 | 0.9 | 0.00 | 0.02 | 0.00 | 90 | 1037.9 |
| 20260905035542 | 60 | 73 | 0.9 | 1.7 | 0.00 | 0.02 | 0.00 | 89 | 1037.9 |
| 20260905035042 | 61 | 98 | 0.0 | 0.9 | 0.00 | 0.02 | 0.00 | 90 | 1037.7 |
| 20260905034541 | 60 | 172 | 1.7 | 2.6 | 0.00 | 0.02 | 0.00 | 90 | 1037.7 |
| 20260905034040 | 61 | 165 | 1.7 | 2.6 | 0.00 | 0.02 | 0.00 | 90 | 1037.3 |
| 20260905033540 | 61 | 150 | 0.0 | 0.9 | 0.00 | 0.02 | 0.00 | 90 | 1037.3 |
| 20260905033039 | 61 | 114 | 0.0 | 0.9 | 0.00 | 0.02 | 0.00 | 90 | 1037.4 |
| 20260905032539 | 61 | 142 | 1.7 | 2.6 | 0.00 | 0.02 | 0.00 | 89 | 1037.2 |
| 20260905032038 | 61 | 147 | 0.9 | 1.7 | 0.00 | 0.02 | 0.00 | 89 | 1037.0 |
| 20260905031538 | 61 | 152 | 2.6 | 2.6 | 0.00 | 0.02 | 0.00 | 88 | 1037.0 |
| 20260905031037 | 61 | 216 | 1.7 | 1.7 | 0.00 | 0.02 | 0.00 | 88 | 1036.7 |
| 20260905030537 | 61 | 177 | 0.9 | 1.7 | 0.00 | 0.02 | 0.00 | 88 | 1036.9 |
| 20260905030036 | 61 | 198 | 0.9 | 0.9 | 0.00 | 0.02 | 0.00 | 88 | 1036.7 |
| 20260905025536 | 61 | 185 | 0.9 | 0.9 | 0.00 | 0.02 | 0.00 | 88 | 1036.4 |
| 20260905025035 | 61 | 141 | 1.7 | 2.6 | 0.00 | 0.02 | 0.00 | 88 | 1036.6 |
| 20260905024535 | 61 | 184 | 0.9 | 0.9 | 0.00 | 0.02 | 0.00 | 88 | 1036.6 |
| 20260905024034 | 61 | 171 | 0.9 | 0.9 | 0.00 | 0.02 | 0.00 | 88 | 1036.7 |
| 20260905023534 | 61 | 139 | 0.0 | 0.0 | 0.00 | 0.02 | 0.00 | 88 | 1037.1 |
| 20260905023033 | 61 | 140 | 0.0 | 0.0 | 0.00 | 0.02 | 0.00 | 88 | 1036.8 |
| 20260905022533 | 61 | 138 | 1.7 | 1.7 | 0.00 | 0.02 | 0.00 | 88 | 1037.0 |
| 20260905022032 | 61 | 126 | 0.9 | 0.9 | 0.00 | 0.02 | 0.00 | 89 | 1036.8 |
| 20260905021532 | 61 | 140 | 2.6 | 3.5 | 0.00 | 0.02 | 0.00 | 89 | 1037.1 |
| 20260905021031 | 61 | 252 | 0.0 | 0.0 | 0.00 | 0.02 | 0.00 | 90 | 1037.1 |
| 20260905020531 | 61 | 133 | 0.9 | 0.9 | 0.00 | 0.02 | 0.00 | 90 | 1037.2 |
| 20260905020030 | 61 | 135 | 0.9 | 2.6 | 0.00 | 0.02 | 0.00 | 91 | 1037.1 |
| 20260905015530 | 61 | 153 | 0.9 | 1.7 | 0.00 | 0.02 | 0.00 | 91 | 1037.2 |
| 20260905015029 | 61 | 130 | 0.0 | 0.9 | 0.00 | 0.02 | 0.00 | 91 | 1037.2 |
| 20260905014529 | 60 | 131 | 0.9 | 1.7 | 0.00 | 0.02 | 0.00 | 92 | 1037.1 |
| 20260905014028 | 60 | 182 | 1.7 | 1.7 | 0.00 | 0.02 | 0.00 | 92 | 1036.9 |
| 20260905013528 | 60 | 118 | 1.7 | 1.7 | 0.00 | 0.02 | 0.00 | 93 | 1036.6 |
| 20260905013027 | 60 | 296 | 0.0 | 0.9 | 0.00 | 0.02 | 0.00 | 93 | 1036.6 |
| 20260905012527 | 60 | 312 | 1.7 | 1.7 | 0.00 | 0.02 | 0.00 | 93 | 1036.4 |
| 20260905012026 | 60 | 148 | 1.7 | 1.7 | 0.00 | 0.02 | 0.00 | 93 | 1036.5 |
| 20260905011526 | 60 | 174 | 0.0 | 0.0 | 0.00 | 0.02 | 0.00 | 92 | 1036.6 |
| 20260905011025 | 60 | 164 | 1.7 | 2.6 | 0.05 | 0.02 | 0.00 | 92 | 1036.7 |
| 20260905010525 | 61 | 163 | 0.0 | 0.0 | 0.05 | 0.02 | 0.00 | 92 | 1036.8 |
| 20260905010024 | 61 | 162 | 0.0 | 0.0 | 0.00 | 0.01 | 0.00 | 91 | 1036.6 |
| 20260905005524 | 61 | 168 | 0.0 | 0.0 | 0.00 | 0.01 | 0.00 | 91 | 1036.7 |
| 20260905005023 | 62 | 171 | 1.7 | 1.7 | 0.07 | 0.01 | 0.00 | 90 | 1036.6 |
| 20260905004523 | 62 | 138 | 0.0 | 0.9 | 0.07 | 0.01 | 0.00 | 88 | 1036.7 |
| 20260905004022 | 63 | 173 | 0.0 | 0.0 | 0.00 | 0.00 | 0.00 | 86 | 1036.3 |
| 20260905003522 | 63 | 94 | 2.6 | 4.3 | 0.00 | 0.00 | 0.00 | 84 | 1036.4 |
| 20260905003021 | 64 | 37 | 1.7 | 2.6 | 0.00 | 0.00 | 0.00 | 82 | 1036.6 |
| 20260905002521 | 64 | 259 | 0.9 | 1.7 | 0.00 | 0.00 | 0.00 | 81 | 1036.5 |
| 20260905002020 | 64 | 344 | 0.9 | 1.7 | 0.00 | 0.00 | 0.00 | 80 | 1036.1 |
| 20260905001520 | 64 | 296 | 0.9 | 1.7 | 0.00 | 0.00 | 0.00 | 80 | 1036.2 |
| 20260905001019 | 65 | 167 | 0.0 | 0.9 | 0.00 | 0.00 | 0.00 | 79 | 1036.2 |
| 20260905000519 | 65 | 253 | 0.9 | 0.9 | 0.00 | 0.00 | 0.00 | 78 | 1036.3 |
| 20260905000018 | 65 | 178 | 2.6 | 2.6 | 0.00 | 0.00 | 0.00 | 77 | 1036.4 |
| 20260904235518 | 65 | 170 | 0.9 | 1.7 | 0.00 | 0.00 | 0.00 | 76 | 1036.1 |
| 20260904235017 | 65 | 18 | 1.7 | 2.6 | 0.00 | 0.00 | 0.00 | 76 | 1035.7 |
| 20260904234516 | 66 | 195 | 0.0 | 0.0 | 0.00 | 0.00 | 0.00 | 76 | 1035.8 |
| 20260904234016 | 66 | 127 | 0.0 | 0.0 | 0.00 | 0.00 | 0.00 | 75 | 1036.1 |
| 20260904233515 | 66 | 236 | 0.9 | 0.9 | 0.00 | 0.00 | 0.00 | 75 | 1036.3 |
| 20260904233015 | 66 | 333 | 1.7 | 2.6 | 0.00 | 0.00 | 0.00 | 74 | 1036.0 |
| 20260904232514 | 66 | 225 | 1.7 | 2.6 | 0.00 | 0.00 | 0.00 | 73 | 1036.1 |
| 20260904232014 | 67 | 214 | 0.9 | 0.9 | 0.00 | 0.00 | 0.00 | 73 | 1035.7 |
| 20260904231513 | 67 | 211 | 0.9 | 0.9 | 0.00 | 0.00 | 0.00 | 73 | 1035.6 |
| 20260904231013 | 67 | 214 | 2.6 | 3.5 | 0.00 | 0.00 | 0.00 | 73 | 1035.6 |
| 20260904230512 | 67 | 198 | 0.9 | 1.7 | 0.00 | 0.00 | 0.00 | 72 | 1035.8 |
| 20260904230012 | 67 | 131 | 0.9 | 0.9 | 0.00 | 0.00 | 0.00 | 72 | 1035.3 |
| 20260904225511 | 67 | 120 | 2.6 | 3.5 | 0.00 | 0.00 | 0.00 | 72 | 1035.5 |
| 20260904225011 | 67 | 165 | 0.9 | 0.9 | 0.00 | 0.00 | 0.00 | 72 | 1035.5 |
| 20260904224510 | 67 | 195 | 0.9 | 1.7 | 0.00 | 0.00 | 0.00 | 72 | 1035.3 |
| 20260904224010 | 67 | 196 | 0.0 | 0.0 | 0.00 | 0.00 | 0.00 | 73 | 1035.4 |
| 20260904223509 | 68 | 132 | 0.0 | 0.0 | 0.00 | 0.00 | 0.00 | 74 | 1035.1 |
| 20260904223008 | 68 | 88 | 0.9 | 0.9 | 0.00 | 0.00 | 0.00 | 75 | 1035.2 |
| 20260904222508 | 68 | 187 | 0.0 | 0.0 | 0.00 | 0.00 | 0.00 | 75 | 1035.0 |
| 20260904222007 | 68 | 166 | 0.0 | 0.0 | 0.00 | 0.00 | 0.00 | 74 | 1034.7 |
| 20260904221507 | 69 | 230 | 0.0 | 0.9 | 0.00 | 0.00 | 0.00 | 74 | 1034.8 |
| 20260904221006 | 69 | 110 | 0.0 | 0.9 | 0.00 | 0.00 | 0.00 | 73 | 1034.8 |
| 20260904220504 | 70 | 0 | 1.7 | 1.7 | 0.00 | 0.00 | 0.00 | 72 | 1034.7 |
| 20260904220004 | 70 | 303 | 0.9 | 0.9 | 0.00 | 0.00 | 0.00 | 71 | 1034.9 |
| 20260904215503 | 71 | 257 | 2.6 | 3.5 | 0.00 | 0.00 | 0.00 | 70 | 1034.6 |
| 20260904215003 | 72 | 83 | 0.9 | 1.7 | 0.00 | 0.00 | 0.00 | 74 | 1034.4 |
| 20260904214502 | 72 | 212 | 0.9 | 0.9 | 0.00 | 0.00 | 0.00 | 74 | 1034.3 |
| 20260904214002 | 72 | 194 | 0.0 | 0.0 | 0.00 | 0.00 | 0.00 | 73 | 1033.8 |
| 20260904213501 | 73 | 197 | 0.0 | 0.9 | 0.00 | 0.00 | 0.00 | 72 | 1033.9 |
| 20260904213000 | 73 | 102 | 0.0 | 0.0 | 0.00 | 0.00 | 0.00 | 72 | 1034.0 |
| 20260904212500 | 73 | 193 | 0.9 | 0.9 | 0.00 | 0.00 | 0.00 | 70 | 1033.7 |
| 20260904211959 | 74 | 178 | 0.9 | 1.7 | 0.00 | 0.00 | 0.00 | 68 | 1033.6 |
| 20260904211459 | 74 | 181 | 4.3 | 5.2 | 0.00 | 0.00 | 0.00 | 68 | 1032.4 |
| 20260904210958 | 74 | 218 | 1.7 | 2.6 | 0.00 | 0.00 | 0.00 | 68 | 1032.4 |
| 20260904210458 | 74 | 57 | 0.9 | 1.7 | 0.00 | 0.00 | 0.00 | 68 | 1032.6 |
| 20260904205957 | 74 | 219 | 1.7 | 2.6 | 0.00 | 0.00 | 0.00 | 68 | 1032.7 |
| 20260904205456 | 74 | 207 | 0.9 | 1.7 | 0.00 | 0.00 | 0.00 | 68 | 1032.8 |
| 20260904204956 | 74 | 188 | 1.7 | 2.6 | 0.00 | 0.00 | 0.00 | 68 | 1032.7 |
| 20260904204455 | 74 | 172 | 1.7 | 1.7 | 0.00 | 0.00 | 0.00 | 69 | 1032.6 |
| 20260904203955 | 73 | 175 | 0.9 | 2.6 | 0.00 | 0.00 | 0.00 | 69 | 1032.7 |
| 20260904203454 | 73 | 167 | 1.7 | 2.6 | 0.00 | 0.00 | 0.00 | 69 | 1032.4 |
| 20260904202954 | 73 | 162 | 1.7 | 2.6 | 0.00 | 0.00 | 0.00 | 70 | 1032.7 |
| 20260904202453 | 73 | 239 | 1.7 | 3.5 | 0.00 | 0.00 | 0.00 | 70 | 1032.7 |
| 20260904201953 | 73 | 185 | 1.7 | 2.6 | 0.00 | 0.00 | 0.00 | 70 | 1032.8 |
| 20260904201452 | 73 | 119 | 0.9 | 1.7 | 0.00 | 0.00 | 0.00 | 70 | 1032.6 |
| 20260904200951 | 73 | 187 | 0.9 | 0.9 | 0.00 | 0.00 | 0.00 | 70 | 1032.6 |
| 20260904200450 | 73 | 169 | 1.7 | 1.7 | 0.00 | 0.00 | 0.00 | 70 | 1032.6 |
| 20260904195949 | 73 | 166 | 0.9 | 1.7 | 0.00 | 0.00 | 0.00 | 70 | 1032.9 |
| 20260904195448 | 73 | 193 | 0.9 | 1.7 | 0.00 | 0.00 | 0.00 | 70 | 1033.0 |
| 20260904194947 | 74 | 185 | 0.9 | 0.9 | 0.00 | 0.00 | 0.00 | 69 | 1032.9 |
| 20260904194446 | 74 | 162 | 1.7 | 1.7 | 0.00 | 0.00 | 0.00 | 69 | 1033.2 |
| 20260904193945 | 73 | 168 | 2.6 | 3.5 | 0.00 | 0.00 | 0.00 | 69 | 1033.0 |
| 20260904193445 | 74 | 196 | 0.0 | 0.9 | 0.00 | 0.00 | 0.00 | 70 | 1033.2 |
| 20260904192934 | 73 | 200 | 1.7 | 2.6 | 0.00 | 0.00 | 0.00 | 70 | 1033.0 |
| 20260904192433 | 73 | 133 | 1.7 | 3.5 | 0.00 | 0.00 | 0.00 | 70 | 1033.0 |
| 20260904191932 | 73 | 168 | 2.6 | 3.5 | 0.00 | 0.00 | 0.00 | 71 | 1033.0 |
| 20260904191431 | 73 | 186 | 0.0 | 0.9 | 0.00 | 0.00 | 0.00 | 71 | 1033.2 |
| 20260904190931 | 73 | 190 | 0.9 | 1.7 | 0.00 | 0.00 | 0.00 | 71 | 1033.3 |
| 20260904190430 | 74 | 186 | 0.9 | 1.7 | 0.00 | 0.00 | 0.00 | 70 | 1033.3 |
| 20260904185929 | 74 | 174 | 1.7 | 1.7 | 0.00 | 0.00 | 0.00 | 70 | 1033.4 |
| 20260904185429 | 73 | 174 | 2.6 | 3.5 | 0.00 | 0.00 | 0.00 | 71 | 1033.4 |
| 20260904184927 | 73 | 137 | 1.7 | 3.5 | 0.00 | 0.00 | 0.00 | 71 | 1033.3 |
| 20260904184426 | 73 | 163 | 1.7 | 1.7 | 0.00 | 0.00 | 0.00 | 71 | 1033.6 |
| 20260904183925 | 73 | 178 | 0.9 | 0.9 | 0.00 | 0.00 | 0.00 | 71 | 1033.6 |